Time;durP1;ratioP1;P1;durP2;ratioP2;P2;SDS_P1;SDS_P2;PMS_P1;PMS_P2;Temp;Humidity;BMP_temperature;BMP_pressure;BME280_temperature;BME280_humidity;BME280_pressure;Samples;Min_cycle;Max_cycle;Signal;HPM_P1;HPM_P2
2022/11/15 08:25:07;;;;;;;1.87;0.93;;;11.20;99.90;;;;;;4897477;29;20219;-75
2022/11/15 08:27:34;;;;;;;3.57;1.17;;;11.20;99.90;;;;;;4901508;29;20214;-75
2022/11/15 08:30:01;;;;;;;3.17;0.93;;;11.20;99.90;;;;;;4901736;29;20230;-76
2022/11/15 08:32:28;;;;;;;2.50;0.90;;;11.20;99.90;;;;;;4901539;29;20217;-76
2022/11/15 08:34:54;;;;;;;3.07;0.87;;;11.20;99.90;;;;;;4893285;29;20227;-72
2022/11/15 08:37:21;;;;;;;1.63;0.70;;;11.20;99.90;;;;;;4886035;29;20689;-74
2022/11/15 08:39:48;;;;;;;1.73;0.70;;;11.30;99.90;;;;;;4890825;29;20241;-71
2022/11/15 08:42:16;;;;;;;3.03;1.10;;;11.20;99.90;;;;;;4889576;29;20670;-73
2022/11/15 08:44:43;;;;;;;1.43;0.70;;;11.10;99.90;;;;;;4890997;29;20619;-73
2022/11/15 08:47:12;;;;;;;1.50;0.80;;;11.10;99.90;;;;;;4884004;29;20223;-73
2022/11/15 08:49:39;;;;;;;2.43;0.90;;;11.20;99.90;;;;;;4889267;29;20207;-74
2022/11/15 08:52:06;;;;;;;2.67;0.80;;;11.20;99.90;;;;;;4886427;29;20203;-74
2022/11/15 08:54:32;;;;;;;2.60;0.70;;;11.10;99.90;;;;;;4894207;29;20203;-74
2022/11/15 08:56:59;;;;;;;2.60;0.70;;;11.20;99.90;;;;;;4894591;29;20306;-71
2022/11/15 08:59:27;;;;;;;2.17;0.40;;;11.20;99.90;;;;;;4889818;29;20669;-73
2022/11/15 09:01:54;;;;;;;2.67;0.63;;;11.20;99.90;;;;;;4895355;29;20305;-75
2022/11/15 09:04:21;;;;;;;1.30;0.60;;;11.30;99.90;;;;;;4887505;29;20551;-73
2022/11/15 09:06:48;;;;;;;0.60;0.50;;;11.20;99.90;;;;;;4894302;29;20219;-73
2022/11/15 09:09:15;;;;;;;3.23;0.63;;;11.10;99.90;;;;;;4883148;29;20231;-73
2022/11/15 09:11:42;;;;;;;1.67;0.77;;;11.00;99.90;;;;;;4891061;29;20233;-72
2022/11/15 09:14:11;;;;;;;2.23;0.60;;;11.10;99.90;;;;;;4893114;29;20203;-72
2022/11/15 09:16:39;;;;;;;2.40;0.47;;;11.10;99.90;;;;;;4891463;29;20237;-73
2022/11/15 09:19:06;;;;;;;1.70;0.63;;;11.20;99.90;;;;;;4894721;29;20210;-71
2022/11/15 09:21:33;;;;;;;2.73;0.50;;;11.20;99.90;;;;;;4898466;29;20235;-74
2022/11/15 09:24:00;;;;;;;2.73;0.80;;;11.30;99.90;;;;;;4898718;29;20238;-76
2022/11/15 09:26:27;;;;;;;1.83;0.70;;;11.40;99.90;;;;;;4898892;29;20224;-73
2022/11/15 09:28:53;;;;;;;2.60;0.50;;;11.50;99.90;;;;;;4900062;29;20220;-75
2022/11/15 09:31:20;;;;;;;2.77;0.50;;;11.40;99.90;;;;;;4899906;29;20236;-73
2022/11/15 09:33:48;;;;;;;0.80;0.50;;;11.40;99.90;;;;;;4898973;29;20662;-72
2022/11/15 09:36:16;;;;;;;1.20;0.63;;;11.50;99.90;;;;;;4900350;29;20238;-74
2022/11/15 09:38:43;;;;;;;2.23;0.50;;;11.60;99.90;;;;;;4900302;29;20270;-74
2022/11/15 09:41:34;;;;;;;1.77;0.60;;;11.60;99.90;;;;;;4900155;29;20234;-74
2022/11/15 09:44:19;;;;;;;5.40;0.50;;;11.60;99.90;;;;;;4898560;29;20581;-76
2022/11/15 09:46:55;;;;;;;1.77;0.50;;;11.70;99.90;;;;;;4900538;29;20217;-74
2022/11/15 09:49:23;;;;;;;2.30;0.50;;;11.60;99.90;;;;;;4899992;29;20593;-72
2022/11/15 09:51:53;;;;;;;3.53;1.00;;;11.60;99.90;;;;;;4899786;29;20206;-69
2022/11/15 09:54:27;;;;;;;5.40;0.70;;;11.70;99.90;;;;;;4900635;29;20210;-73
2022/11/15 09:56:56;;;;;;;1.57;0.50;;;11.70;99.90;;;;;;4899815;29;20236;-74
2022/11/15 09:59:53;;;;;;;3.97;0.47;;;11.60;99.90;;;;;;4899864;29;20298;-75
2022/11/15 10:02:34;;;;;;;0.63;0.40;;;11.70;99.90;;;;;;4898092;29;20210;-74
2022/11/15 10:05:02;;;;;;;1.00;0.50;;;11.70;99.90;;;;;;4899563;29;20210;-73
2022/11/15 10:07:39;;;;;;;2.03;0.63;;;11.70;99.90;;;;;;4899842;29;20311;-72
2022/11/15 10:10:16;;;;;;;2.30;0.47;;;11.80;99.90;;;;;;4899318;29;20229;-75
2022/11/15 10:12:47;;;;;;;1.10;0.47;;;11.90;99.90;;;;;;4899124;29;20210;-75
2022/11/15 10:15:16;;;;;;;3.03;0.40;;;11.80;99.90;;;;;;4898899;29;20238;-69
2022/11/15 10:18:14;;;;;;;1.27;0.40;;;11.80;99.90;;;;;;4898798;29;20550;-73
2022/11/15 10:20:48;;;;;;;2.93;0.53;;;11.80;99.90;;;;;;4895351;29;20315;-75
2022/11/15 10:23:18;;;;;;;1.07;0.43;;;11.80;99.90;;;;;;4898806;29;20218;-72
2022/11/15 10:25:45;;;;;;;4.10;0.50;;;11.80;99.90;;;;;;4898541;29;20598;-73
2022/11/15 10:28:23;;;;;;;1.13;0.53;;;11.90;99.90;;;;;;4898802;29;20286;-74
2022/11/15 10:30:52;;;;;;;3.70;0.70;;;11.90;99.90;;;;;;4898729;29;20230;-75
2022/11/15 10:33:27;;;;;;;1.87;0.60;;;12.00;99.90;;;;;;4899042;29;20210;-75
2022/11/15 10:36:28;;;;;;;3.23;0.50;;;12.20;99.90;;;;;;4898933;29;20237;-75
2022/11/15 10:38:57;;;;;;;2.47;0.50;;;12.20;99.90;;;;;;4859560;29;20219;-76
2022/11/15 10:41:31;;;;;;;0.53;0.30;;;12.20;99.90;;;;;;4858993;29;20240;-73
2022/11/15 10:44:26;;;;;;;0.47;0.30;;;12.30;99.90;;;;;;4879787;29;20218;-74
2022/11/15 10:47:27;;;;;;;0.97;0.40;;;12.40;99.90;;;;;;4898866;29;20210;-75
2022/11/15 10:49:57;;;;;;;1.80;0.40;;;12.70;99.90;;;;;;4859316;29;20299;-75
2022/11/15 10:52:25;;;;;;;1.37;0.43;;;12.70;99.90;;;;;;4891401;29;20215;-74
2022/11/15 10:54:57;;;;;;;0.50;0.30;;;12.60;99.90;;;;;;4898434;29;20627;-76
2022/11/15 10:57:27;;;;;;;2.10;0.40;;;12.50;99.90;;;;;;4898645;29;20240;-76
2022/11/15 10:59:58;;;;;;;2.00;0.47;;;12.60;99.90;;;;;;4898672;29;20244;-74
2022/11/15 11:02:30;;;;;;;0.60;0.30;;;12.70;99.90;;;;;;4898537;29;20220;-77
2022/11/15 11:04:57;;;;;;;1.97;0.40;;;12.70;99.90;;;;;;4898886;29;20309;-75
2022/11/15 11:07:27;;;;;;;2.00;0.30;;;12.80;99.90;;;;;;4898337;29;20214;-73
2022/11/15 11:10:00;;;;;;;2.90;0.50;;;12.90;99.90;;;;;;4898521;29;20237;-73
2022/11/15 11:12:32;;;;;;;3.70;0.43;;;12.80;99.90;;;;;;4898247;29;20624;-73
2022/11/15 11:15:00;;;;;;;0.87;0.40;;;12.90;99.90;;;;;;4898331;29;20246;-73
2022/11/15 11:17:41;;;;;;;1.60;0.50;;;13.00;99.90;;;;;;4898246;29;20238;-72
2022/11/15 11:20:17;;;;;;;0.60;0.40;;;12.90;99.90;;;;;;4898596;29;20237;-76
2022/11/15 11:23:01;;;;;;;1.57;0.60;;;12.90;99.90;;;;;;4898133;29;20669;-76
2022/11/15 11:25:34;;;;;;;2.57;0.50;;;13.00;99.90;;;;;;4897977;29;20214;-75
2022/11/15 11:28:27;;;;;;;1.67;0.40;;;13.00;99.90;;;;;;4900618;29;20217;-76
2022/11/15 11:31:07;;;;;;;0.90;0.60;;;13.10;99.90;;;;;;4899361;29;20313;-74
2022/11/15 11:33:42;;;;;;;2.97;0.40;;;13.10;99.90;;;;;;4897998;29;20210;-76
2022/11/15 11:36:18;;;;;;;3.33;0.63;;;13.30;99.90;;;;;;4898481;29;20726;-76
2022/11/15 11:39:05;;;;;;;1.77;0.80;;;13.40;99.90;;;;;;4897912;29;20210;-76
2022/11/15 11:41:50;;;;;;;0.73;0.30;;;13.30;99.90;;;;;;4898212;29;20257;-76
2022/11/15 11:44:31;;;;;;;1.40;0.50;;;13.40;99.90;;;;;;4898027;29;20214;-75
2022/11/15 11:47:01;;;;;;;4.87;0.40;;;13.50;99.90;;;;;;4897816;29;20215;-76
2022/11/15 11:49:35;;;;;;;2.40;0.53;;;13.70;99.90;;;;;;4898262;29;20215;-76
2022/11/15 11:52:09;;;;;;;2.20;0.40;;;13.70;99.90;;;;;;4898040;29;20241;-74
2022/11/15 11:54:47;;;;;;;2.47;0.70;;;13.60;99.90;;;;;;4897864;29;20220;-74
2022/11/15 11:57:23;;;;;;;2.17;0.30;;;13.70;99.90;;;;;;4896978;29;20709;-73
2022/11/15 11:59:55;;;;;;;3.33;0.40;;;13.70;99.90;;;;;;4897706;29;20705;-75
2022/11/15 12:02:29;;;;;;;0.83;0.30;;;13.70;99.90;;;;;;4897687;29;20584;-75
2022/11/15 12:05:03;;;;;;;1.30;0.50;;;13.80;99.90;;;;;;4897842;29;20210;-75
2022/11/15 12:07:34;;;;;;;2.50;0.40;;;13.70;99.90;;;;;;4897863;29;20206;-75
2022/11/15 12:10:06;;;;;;;1.27;0.30;;;13.70;99.90;;;;;;4897689;29;20236;-76
2022/11/15 12:12:39;;;;;;;1.17;0.30;;;13.80;99.90;;;;;;4897594;29;20700;-74
2022/11/15 12:15:14;;;;;;;1.73;0.40;;;13.70;99.90;;;;;;4897838;29;20221;-75
2022/11/15 12:17:42;;;;;;;2.40;0.40;;;13.70;99.90;;;;;;4897633;29;20605;-75
2022/11/15 12:20:16;;;;;;;2.90;0.80;;;13.60;99.90;;;;;;4897538;29;20230;-75
2022/11/15 12:22:47;;;;;;;3.40;0.40;;;13.70;99.90;;;;;;4896586;29;20541;-70
2022/11/15 12:25:21;;;;;;;2.70;0.40;;;13.70;99.90;;;;;;4897117;29;20220;-75
2022/11/15 12:27:53;;;;;;;2.23;0.40;;;13.60;99.90;;;;;;4896967;29;20210;-74
2022/11/15 12:30:22;;;;;;;0.67;0.30;;;13.60;99.90;;;;;;4896857;29;20230;-77
2022/11/15 12:32:54;;;;;;;1.40;0.40;;;13.60;99.90;;;;;;4897469;29;20210;-71
2022/11/15 12:35:26;;;;;;;1.87;0.40;;;13.60;99.90;;;;;;4896495;29;20242;-74
2022/11/15 12:37:56;;;;;;;1.40;0.30;;;13.70;99.90;;;;;;4896452;29;20734;-74
2022/11/15 12:40:36;;;;;;;0.87;0.40;;;13.70;99.90;;;;;;4896543;29;20822;-75
2022/11/15 12:43:38;;;;;;;1.80;0.30;;;13.70;99.90;;;;;;4896366;29;20232;-76
2022/11/15 12:46:11;;;;;;;2.00;0.60;;;13.70;99.90;;;;;;4896754;29;20218;-75
2022/11/15 12:48:50;;;;;;;1.57;0.27;;;13.60;99.90;;;;;;4897090;29;20210;-77
2022/11/15 12:51:20;;;;;;;2.43;0.30;;;13.50;99.90;;;;;;4896766;29;20234;-76
2022/11/15 12:53:47;;;;;;;0.77;0.40;;;13.60;99.90;;;;;;4897273;29;20216;-74
2022/11/15 12:56:33;;;;;;;1.17;0.23;;;13.60;99.90;;;;;;4897251;29;20235;-76
2022/11/15 12:59:02;;;;;;;2.40;0.40;;;13.70;99.90;;;;;;4897294;29;20692;-76
2022/11/15 13:02:07;;;;;;;1.00;0.50;;;13.70;99.90;;;;;;4897170;29;20234;-77
2022/11/15 13:04:34;;;;;;;1.20;0.50;;;13.80;99.90;;;;;;4881314;29;20300;-76
2022/11/15 13:07:03;;;;;;;3.40;0.30;;;14.00;99.90;;;;;;4897427;29;20680;-77
2022/11/15 13:09:55;;;;;;;1.20;0.23;;;14.00;99.90;;;;;;4900558;29;20218;-75
2022/11/15 13:12:53;;;;;;;1.07;0.50;;;14.10;99.90;;;;;;4900432;29;20215;-76
2022/11/15 13:15:56;;;;;;;1.53;0.50;;;14.30;99.90;;;;;;4900495;29;20206;-77
2022/11/15 13:18:38;;;;;;;0.77;0.30;;;14.50;99.90;;;;;;4879724;29;20321;-74
2022/11/15 13:24:05;;;;;;;2.20;0.57;;;14.30;99.90;;;;;;4900167;29;20213;-72
2022/11/15 13:26:32;;;;;;;1.73;0.47;;;14.30;99.90;;;;;;4900089;29;20570;-77
2022/11/15 13:29:00;;;;;;;3.23;0.50;;;14.10;99.90;;;;;;4900062;29;20210;-76
2022/11/15 13:31:36;;;;;;;1.40;0.50;;;14.00;99.90;;;;;;4900235;29;20320;-76
2022/11/15 13:34:14;;;;;;;0.90;0.40;;;13.80;99.90;;;;;;4900078;29;20733;-76
2022/11/15 13:36:41;;;;;;;1.20;0.40;;;13.80;99.90;;;;;;4900302;29;20241;-75
2022/11/15 13:39:26;;;;;;;0.70;0.40;;;13.80;99.90;;;;;;4899947;29;20670;-76
2022/11/15 13:41:53;;;;;;;1.80;0.63;;;13.90;99.90;;;;;;4900480;29;20213;-76
2022/11/15 13:44:23;;;;;;;3.93;0.50;;;14.00;99.90;;;;;;4899884;29;20210;-77
2022/11/15 13:47:01;;;;;;;2.40;0.40;;;14.00;99.90;;;;;;4900509;29;20210;-74
2022/11/15 13:49:31;;;;;;;3.00;0.70;;;14.00;99.90;;;;;;4900475;29;20213;-73
2022/11/15 13:51:58;;;;;;;1.00;0.50;;;14.00;99.90;;;;;;4899731;29;20570;-76
2022/11/15 13:54:29;;;;;;;0.50;0.30;;;14.00;99.90;;;;;;4899803;29;20218;-76
2022/11/15 13:56:59;;;;;;;1.37;0.50;;;14.00;99.90;;;;;;4899950;29;20245;-75
2022/11/15 13:59:30;;;;;;;0.77;0.40;;;13.90;99.90;;;;;;4899788;29;20206;-72
2022/11/15 14:02:00;;;;;;;0.80;0.50;;;14.00;99.90;;;;;;4899611;29;20206;-77
2022/11/15 14:04:33;;;;;;;1.57;0.50;;;14.00;99.90;;;;;;4899662;29;20217;-76
2022/11/15 14:07:02;;;;;;;1.57;0.37;;;14.00;99.90;;;;;;4899821;29;20306;-77
2022/11/15 14:09:37;;;;;;;1.87;0.70;;;14.10;99.90;;;;;;4899622;29;20211;-74
2022/11/15 14:12:25;;;;;;;1.20;0.50;;;14.00;99.90;;;;;;4899527;29;20214;-75
2022/11/15 14:14:53;;;;;;;1.30;0.60;;;14.00;99.90;;;;;;4899138;29;20218;-76
2022/11/15 14:17:23;;;;;;;2.30;0.50;;;14.00;99.90;;;;;;4899112;29;20705;-75
2022/11/15 14:19:51;;;;;;;0.73;0.53;;;14.00;99.90;;;;;;4899267;29;20269;-77
2022/11/15 14:22:21;;;;;;;0.90;0.60;;;14.00;99.90;;;;;;4899446;29;20218;-76
2022/11/15 14:25:14;;;;;;;1.97;0.60;;;13.90;99.90;;;;;;4899014;29;20630;-75
2022/11/15 14:27:41;;;;;;;0.70;0.40;;;13.80;99.90;;;;;;4899257;29;20669;-76
2022/11/15 14:30:14;;;;;;;1.20;0.70;;;13.80;99.90;;;;;;4899436;29;20258;-77
2022/11/15 14:32:45;;;;;;;0.97;0.57;;;13.70;99.90;;;;;;4899497;29;20210;-76
2022/11/15 14:35:16;;;;;;;2.03;0.80;;;13.60;99.90;;;;;;4899475;29;20214;-76
2022/11/15 14:37:43;;;;;;;0.97;0.40;;;13.60;99.90;;;;;;4899057;29;20242;-77
2022/11/15 14:40:15;;;;;;;1.97;0.50;;;13.60;99.90;;;;;;4899084;29;20733;-76
2022/11/15 14:42:42;;;;;;;0.70;0.40;;;13.60;99.90;;;;;;4899256;29;20261;-77
2022/11/15 14:45:14;;;;;;;1.23;0.67;;;13.60;99.90;;;;;;4899289;29;20218;-76
2022/11/15 14:47:41;;;;;;;0.77;0.43;;;13.60;99.90;;;;;;4898871;29;20218;-76
2022/11/15 14:50:12;;;;;;;1.17;0.53;;;13.60;99.90;;;;;;4898770;29;20230;-77
2022/11/15 14:52:39;;;;;;;0.73;0.40;;;13.60;99.90;;;;;;4899039;29;20573;-77
2022/11/15 14:55:16;;;;;;;0.93;0.47;;;13.60;99.90;;;;;;4899047;29;20216;-73
2022/11/15 14:57:42;;;;;;;1.53;0.50;;;13.60;99.90;;;;;;4898835;29;20244;-76
2022/11/15 15:00:10;;;;;;;1.27;0.50;;;13.50;99.90;;;;;;4898886;29;20230;-76
2022/11/15 15:02:39;;;;;;;1.73;0.50;;;13.50;99.90;;;;;;4898660;29;20581;-76
2022/11/15 15:05:15;;;;;;;1.17;0.67;;;13.50;99.90;;;;;;4898631;29;20658;-75
2022/11/15 15:07:42;;;;;;;0.67;0.40;;;13.60;99.90;;;;;;4898587;29;20264;-75
2022/11/15 15:10:09;;;;;;;3.80;0.83;;;13.60;99.90;;;;;;4898217;29;20701;-76
2022/11/15 15:12:36;;;;;;;0.87;0.60;;;13.50;99.90;;;;;;4898584;29;20217;-73
2022/11/15 15:15:03;;;;;;;1.03;0.50;;;13.50;99.90;;;;;;4898421;29;20211;-76
2022/11/15 15:17:30;;;;;;;2.70;0.60;;;13.40;99.90;;;;;;4898109;29;20242;-76
2022/11/15 15:19:59;;;;;;;1.03;0.60;;;13.50;99.90;;;;;;4898480;29;20246;-75
2022/11/15 15:22:29;;;;;;;6.13;0.60;;;13.40;99.90;;;;;;4898446;29;20210;-76
2022/11/15 15:24:56;;;;;;;1.13;0.60;;;13.40;99.90;;;;;;4898019;29;20218;-76
2022/11/15 15:27:22;;;;;;;1.90;0.77;;;13.30;99.90;;;;;;4898261;29;20229;-75
2022/11/15 15:29:49;;;;;;;1.77;0.90;;;13.10;99.90;;;;;;4898664;29;20234;-75
2022/11/15 15:32:16;;;;;;;2.03;0.90;;;13.00;99.90;;;;;;4897234;29;20321;-76
2022/11/15 15:34:43;;;;;;;1.50;0.70;;;13.10;99.90;;;;;;4898016;29;20207;-74
2022/11/15 15:37:23;;;;;;;3.63;0.77;;;13.00;99.90;;;;;;4898038;29;20249;-76
2022/11/15 15:39:50;;;;;;;1.67;0.80;;;12.90;99.90;;;;;;4897812;29;20230;-73
2022/11/15 15:42:17;;;;;;;1.63;0.70;;;12.90;99.90;;;;;;4898016;29;20206;-77
2022/11/15 15:44:44;;;;;;;1.70;0.73;;;12.80;99.90;;;;;;4898171;29;20673;-77
2022/11/15 15:47:12;;;;;;;1.97;0.90;;;12.70;99.90;;;;;;4898013;29;20654;-76
2022/11/15 15:49:39;;;;;;;3.07;1.10;;;12.60;99.90;;;;;;4898073;29;20221;-76
2022/11/15 15:52:06;;;;;;;1.23;0.70;;;12.70;99.90;;;;;;4897854;29;20214;-75
2022/11/15 15:54:34;;;;;;;1.60;0.83;;;12.70;99.90;;;;;;4898077;29;20209;-74
2022/11/15 15:57:01;;;;;;;3.60;1.03;;;12.70;99.90;;;;;;4897772;29;20241;-76
2022/11/15 15:59:28;;;;;;;1.03;0.80;;;12.60;99.90;;;;;;4898086;29;20214;-76
2022/11/15 16:01:54;;;;;;;3.00;1.00;;;12.70;99.90;;;;;;4897852;29;20216;-76
2022/11/15 16:04:21;;;;;;;1.40;0.70;;;12.60;99.90;;;;;;4897656;29;20214;-74
2022/11/15 16:06:50;;;;;;;1.73;1.00;;;12.70;99.90;;;;;;4897825;29;20206;-72
2022/11/15 16:09:18;;;;;;;3.13;1.10;;;12.60;99.90;;;;;;4897659;29;20210;-72
2022/11/15 16:11:47;;;;;;;2.17;1.10;;;12.60;99.90;;;;;;4897736;29;20585;-75
2022/11/15 16:14:14;;;;;;;4.03;1.80;;;12.60;99.90;;;;;;4898015;29;20581;-75
2022/11/15 16:16:40;;;;;;;2.17;1.40;;;12.60;99.90;;;;;;4897890;29;20210;-75
2022/11/15 16:19:09;;;;;;;4.77;1.67;;;12.60;99.90;;;;;;4897795;29;20327;-74
2022/11/15 16:21:36;;;;;;;2.73;1.30;;;12.60;99.90;;;;;;4897551;29;20230;-73
2022/11/15 16:24:04;;;;;;;1.63;1.10;;;12.60;99.90;;;;;;4897723;29;20214;-76
2022/11/15 16:26:31;;;;;;;5.27;1.87;;;12.60;99.90;;;;;;4897782;29;20234;-75
2022/11/15 16:28:59;;;;;;;2.57;1.43;;;12.50;99.90;;;;;;4897526;29;20670;-75
2022/11/15 16:31:26;;;;;;;1.50;1.00;;;12.50;99.90;;;;;;4897425;29;20238;-75
2022/11/15 16:33:53;;;;;;;1.90;1.10;;;12.50;99.90;;;;;;4897517;29;20214;-76
2022/11/15 16:36:22;;;;;;;3.33;1.10;;;12.60;99.90;;;;;;4897623;29;20207;-77
2022/11/15 16:38:49;;;;;;;1.90;1.20;;;12.40;99.90;;;;;;4897553;29;20245;-71
2022/11/15 16:41:18;;;;;;;1.77;1.00;;;12.40;99.90;;;;;;4897737;29;20567;-76
2022/11/15 16:43:46;;;;;;;2.23;1.50;;;12.40;99.90;;;;;;4900451;29;20210;-75
2022/11/15 16:46:18;;;;;;;2.90;1.80;;;12.40;99.90;;;;;;4900875;29;20218;-76
2022/11/15 16:48:45;;;;;;;3.50;1.67;;;12.40;99.90;;;;;;4901023;29;20217;-76
2022/11/15 16:51:12;;;;;;;3.40;1.37;;;12.40;99.90;;;;;;4900850;29;20242;-75
2022/11/15 16:53:39;;;;;;;1.53;0.93;;;12.40;99.90;;;;;;4901346;29;20220;-76
2022/11/15 16:56:20;;;;;;;2.53;1.20;;;12.40;99.90;;;;;;4901065;29;20210;-78
2022/11/15 16:58:46;;;;;;;1.40;1.13;;;12.40;99.90;;;;;;4900727;29;20234;-79
2022/11/15 17:01:19;;;;;;;1.40;1.07;;;12.40;99.90;;;;;;4900395;29;20234;-71
2022/11/15 17:03:46;;;;;;;1.10;0.90;;;12.30;99.90;;;;;;4900662;29;20278;-77
2022/11/15 17:06:14;;;;;;;1.53;1.10;;;12.40;99.90;;;;;;4900895;29;20214;-76
2022/11/15 17:08:41;;;;;;;2.40;1.40;;;12.40;99.90;;;;;;4900695;29;20211;-76
2022/11/15 17:11:08;;;;;;;2.93;1.30;;;12.50;99.90;;;;;;4900411;29;20713;-75
2022/11/15 17:13:35;;;;;;;1.53;1.10;;;12.60;99.90;;;;;;4900532;29;20554;-75
2022/11/15 17:16:07;;;;;;;1.43;1.13;;;12.60;99.90;;;;;;4900674;29;20218;-76
2022/11/15 17:18:36;;;;;;;3.13;1.10;;;12.50;99.90;;;;;;4900749;29;20246;-76
2022/11/15 17:21:07;;;;;;;4.17;1.33;;;12.50;99.90;;;;;;4888554;29;20252;-73
2022/11/15 17:23:34;;;;;;;2.03;1.30;;;12.50;99.90;;;;;;4885045;29;20225;-74
2022/11/15 17:26:03;;;;;;;3.00;1.30;;;12.50;99.90;;;;;;4885961;29;20206;-73
2022/11/15 17:28:29;;;;;;;1.70;1.20;;;12.40;99.90;;;;;;4887721;29;20202;-70
2022/11/15 17:30:56;;;;;;;4.60;1.77;;;12.50;99.90;;;;;;4889505;29;20344;-74
2022/11/15 17:33:24;;;;;;;3.07;1.30;;;12.50;99.90;;;;;;4885903;29;20227;-73
2022/11/15 17:35:57;;;;;;;4.00;1.33;;;12.60;99.90;;;;;;4891357;29;20210;-73
2022/11/15 17:38:24;;;;;;;2.77;1.37;;;12.60;99.90;;;;;;4889702;29;20294;-74
2022/11/15 17:41:01;;;;;;;3.00;1.27;;;12.50;99.90;;;;;;4889837;29;20709;-73
2022/11/15 17:43:28;;;;;;;2.63;2.03;;;12.50;99.90;;;;;;4889318;29;20218;-73
2022/11/15 17:45:55;;;;;;;3.13;1.80;;;12.40;99.90;;;;;;4896140;29;20213;-73
2022/11/15 17:48:22;;;;;;;2.10;1.30;;;12.40;99.90;;;;;;4893495;29;20214;-75
2022/11/15 17:50:58;;;;;;;2.20;1.40;;;12.40;99.90;;;;;;4888623;29;20227;-73
2022/11/15 17:53:25;;;;;;;1.93;1.23;;;12.40;99.90;;;;;;4892172;29;20211;-73
2022/11/15 17:55:52;;;;;;;2.97;1.63;;;12.50;99.90;;;;;;4887584;29;20218;-74
2022/11/15 17:58:19;;;;;;;2.70;1.63;;;12.40;99.90;;;;;;4889960;29;20245;-73
2022/11/15 18:00:47;;;;;;;3.10;1.60;;;12.40;99.90;;;;;;4888378;29;20227;-71
2022/11/15 18:03:14;;;;;;;1.70;1.37;;;12.50;99.90;;;;;;4885748;29;20218;-70
2022/11/15 18:05:42;;;;;;;2.53;1.73;;;12.50;99.90;;;;;;4888840;29;20289;-72
2022/11/15 18:08:12;;;;;;;4.10;2.30;;;12.40;99.90;;;;;;4893446;29;20680;-73
2022/11/15 18:10:39;;;;;;;2.80;1.57;;;12.40;99.90;;;;;;4892686;29;20223;-73
2022/11/15 18:13:05;;;;;;;2.57;1.60;;;12.50;99.90;;;;;;4884971;29;20215;-73
2022/11/15 18:15:32;;;;;;;3.47;1.67;;;12.50;99.90;;;;;;4892897;29;20220;-70
2022/11/15 18:17:59;;;;;;;2.37;1.63;;;12.40;99.90;;;;;;4892723;29;20597;-71
2022/11/15 18:20:26;;;;;;;2.30;1.53;;;12.50;99.90;;;;;;4892356;29;20237;-74
2022/11/15 18:22:53;;;;;;;3.77;1.50;;;12.50;99.90;;;;;;4879115;29;20243;-72
2022/11/15 18:25:21;;;;;;;2.70;1.70;;;12.60;99.90;;;;;;4879454;29;20218;-73
2022/11/15 18:27:54;;;;;;;1.90;1.50;;;12.60;99.90;;;;;;4879078;29;20667;-71
2022/11/15 18:30:21;;;;;;;2.03;1.50;;;12.60;99.90;;;;;;4880046;29;20238;-74
2022/11/15 18:32:47;;;;;;;5.10;1.73;;;12.60;99.90;;;;;;4879996;29;20211;-72
2022/11/15 18:35:14;;;;;;;3.93;1.63;;;12.50;99.90;;;;;;4880051;29;20217;-73
2022/11/15 18:37:41;;;;;;;4.07;1.97;;;12.50;99.90;;;;;;4880328;29;20231;-72
2022/11/15 18:40:09;;;;;;;5.73;1.80;;;12.60;99.90;;;;;;4880011;29;20235;-74
2022/11/15 18:42:37;;;;;;;3.10;1.40;;;12.60;99.90;;;;;;4880067;29;20215;-74
2022/11/15 18:45:05;;;;;;;5.70;2.17;;;12.60;99.90;;;;;;4880039;29;20560;-73
2022/11/15 18:47:31;;;;;;;3.23;1.67;;;12.60;99.90;;;;;;4880044;29;20242;-70
2022/11/15 18:49:58;;;;;;;6.27;2.90;;;12.60;99.90;;;;;;4879759;29;20239;-73
2022/11/15 18:52:25;;;;;;;7.27;2.87;;;12.60;99.90;;;;;;4879687;29;20211;-73
2022/11/15 18:54:52;;;;;;;3.27;1.93;;;12.50;99.90;;;;;;4879795;29;20222;-73
2022/11/15 18:57:19;;;;;;;3.80;2.00;;;12.50;99.90;;;;;;4879862;29;20222;-73
2022/11/15 18:59:47;;;;;;;2.77;2.03;;;12.60;99.90;;;;;;4879610;29;20282;-74
2022/11/15 19:02:14;;;;;;;2.93;1.73;;;12.60;99.90;;;;;;4879634;29;20226;-72
2022/11/15 19:04:41;;;;;;;4.30;2.10;;;12.60;99.90;;;;;;4892694;29;20661;-75
2022/11/15 19:07:07;;;;;;;3.10;2.00;;;12.60;99.90;;;;;;4897937;29;20232;-74
2022/11/15 19:09:34;;;;;;;2.87;1.90;;;12.50;99.90;;;;;;4897034;29;20212;-70
2022/11/15 19:12:01;;;;;;;5.57;2.07;;;12.60;99.90;;;;;;4896650;29;20225;-74
2022/11/15 19:14:28;;;;;;;3.60;2.00;;;12.50;99.90;;;;;;4896925;29;20289;-69
2022/11/15 19:16:56;;;;;;;6.07;2.13;;;12.50;99.90;;;;;;4895164;29;20205;-72
2022/11/15 19:19:27;;;;;;;6.30;3.57;;;12.60;99.90;;;;;;4897171;29;20234;-73
2022/11/15 19:21:55;;;;;;;4.77;2.80;;;12.50;99.90;;;;;;4896559;29;20202;-74
2022/11/15 19:24:22;;;;;;;3.33;2.10;;;12.50;99.90;;;;;;4894810;29;20210;-73
2022/11/15 19:26:49;;;;;;;6.83;2.90;;;12.50;99.90;;;;;;4897479;29;20198;-74
2022/11/15 19:29:17;;;;;;;6.77;3.27;;;12.50;99.90;;;;;;4897102;29;20206;-74
2022/11/15 19:31:43;;;;;;;3.50;2.13;;;12.60;99.90;;;;;;4896663;29;20609;-72
2022/11/15 19:34:12;;;;;;;4.70;2.30;;;12.60;99.90;;;;;;4893498;29;20219;-73
2022/11/15 19:36:40;;;;;;;3.90;2.17;;;12.60;99.90;;;;;;4885063;29;20211;-74
2022/11/15 19:39:10;;;;;;;3.27;2.13;;;12.60;99.90;;;;;;4895690;29;20241;-73
2022/11/15 19:41:38;;;;;;;2.63;1.87;;;12.60;99.90;;;;;;4888442;29;20319;-74
2022/11/15 19:44:06;;;;;;;2.07;1.43;;;12.60;99.90;;;;;;4895154;29;20577;-71
2022/11/15 19:46:33;;;;;;;4.03;1.87;;;12.60;99.90;;;;;;4891790;29;20571;-72
2022/11/15 19:49:00;;;;;;;1.80;1.27;;;12.70;99.90;;;;;;4888214;29;20211;-72
2022/11/15 19:51:29;;;;;;;3.17;1.77;;;12.60;99.90;;;;;;4889204;29;20222;-72
2022/11/15 19:54:00;;;;;;;3.10;2.00;;;12.60;99.90;;;;;;4890557;29;20278;-73
2022/11/15 19:56:27;;;;;;;3.10;1.67;;;12.60;99.90;;;;;;4890720;29;20229;-73
2022/11/15 19:58:56;;;;;;;3.03;1.60;;;12.60;99.90;;;;;;4884856;29;20255;-74
2022/11/15 20:01:24;;;;;;;3.00;1.70;;;12.70;99.90;;;;;;4894072;29;20234;-73
2022/11/15 20:03:53;;;;;;;2.87;1.90;;;12.70;99.90;;;;;;4893173;29;20206;-72
2022/11/15 20:06:21;;;;;;;3.93;1.83;;;12.70;99.90;;;;;;4893808;29;20218;-72
2022/11/15 20:08:50;;;;;;;2.43;1.83;;;12.70;99.90;;;;;;4886258;29;20233;-73
2022/11/15 20:11:18;;;;;;;3.33;2.00;;;12.70;99.90;;;;;;4889087;29;20230;-72
2022/11/15 20:13:45;;;;;;;3.80;2.13;;;12.70;99.90;;;;;;4877908;29;20219;-73
2022/11/15 20:16:16;;;;;;;3.33;1.60;;;12.70;99.90;;;;;;4892604;29;20210;-71
2022/11/15 20:18:43;;;;;;;2.83;2.00;;;12.60;99.90;;;;;;4899843;29;20242;-73
2022/11/15 20:21:11;;;;;;;3.40;2.07;;;12.60;99.90;;;;;;4895298;29;20241;-72
2022/11/15 20:23:38;;;;;;;3.17;2.10;;;12.70;99.90;;;;;;4897027;29;20705;-72
2022/11/15 20:26:06;;;;;;;3.83;2.10;;;12.70;99.90;;;;;;4900703;29;20477;-75
2022/11/15 20:28:35;;;;;;;3.03;2.10;;;12.60;99.90;;;;;;4891899;29;20242;-72
2022/11/15 20:31:02;;;;;;;4.00;2.00;;;12.70;99.90;;;;;;4890387;29;20234;-72
2022/11/15 20:33:29;;;;;;;3.23;1.60;;;12.70;99.90;;;;;;4896079;29;20241;-73
2022/11/15 20:35:56;;;;;;;4.03;2.20;;;12.70;99.90;;;;;;4893920;29;20310;-72
2022/11/15 20:38:23;;;;;;;3.07;2.17;;;12.70;99.90;;;;;;4900208;29;20238;-72
2022/11/15 20:40:51;;;;;;;3.30;1.87;;;12.70;99.90;;;;;;4900573;29;20233;-72
2022/11/15 20:43:20;;;;;;;3.13;1.53;;;12.80;99.90;;;;;;4900463;29;20578;-72
2022/11/15 20:45:49;;;;;;;2.43;1.40;;;12.80;99.90;;;;;;4900652;29;20206;-69
2022/11/15 20:48:16;;;;;;;2.60;1.70;;;12.90;99.90;;;;;;4900734;29;20246;-71
2022/11/15 20:50:44;;;;;;;3.20;1.77;;;12.90;99.90;;;;;;4900537;29;20230;-70
2022/11/15 20:53:12;;;;;;;3.33;1.83;;;12.90;99.90;;;;;;4900311;29;20207;-73
2022/11/15 20:55:40;;;;;;;3.37;1.70;;;12.90;99.90;;;;;;4900318;29;20249;-72
2022/11/15 20:58:08;;;;;;;3.83;2.10;;;12.90;99.90;;;;;;4900320;29;20222;-73
2022/11/15 21:00:36;;;;;;;3.37;1.80;;;12.90;99.90;;;;;;4900211;29;20230;-73
2022/11/15 21:03:05;;;;;;;4.20;2.10;;;12.80;99.90;;;;;;4900389;29;20215;-74
2022/11/15 21:05:33;;;;;;;3.00;1.83;;;12.80;99.90;;;;;;4900098;29;20558;-74
2022/11/15 21:08:00;;;;;;;2.43;1.70;;;12.90;99.90;;;;;;4900433;29;20217;-73
2022/11/15 21:13:11;;;;;;;3.43;1.77;;;12.90;99.90;;;;;;4900021;29;20261;-70
2022/11/15 21:15:39;;;;;;;2.77;1.80;;;12.90;99.90;;;;;;4899858;29;20285;-74
2022/11/15 21:18:06;;;;;;;5.13;2.30;;;12.70;99.90;;;;;;4900487;29;20207;-69
2022/11/15 21:20:33;;;;;;;4.27;2.37;;;12.70;99.90;;;;;;4899659;29;20589;-74
2022/11/15 21:23:00;;;;;;;3.20;1.80;;;12.70;99.90;;;;;;4899900;29;20213;-74
2022/11/15 21:25:27;;;;;;;4.13;2.23;;;12.70;99.90;;;;;;4899842;29;20305;-73
2022/11/15 21:27:53;;;;;;;6.67;2.20;;;12.60;99.90;;;;;;4899718;29;20206;-73
2022/11/15 21:30:20;;;;;;;3.13;2.10;;;12.60;99.90;;;;;;4899440;29;20234;-69
2022/11/15 21:32:49;;;;;;;2.40;1.80;;;12.70;99.90;;;;;;4893864;29;20210;-74
2022/11/15 21:35:15;;;;;;;3.17;1.90;;;12.70;99.90;;;;;;4893920;29;20274;-73